New Orleans Nas Jrb/Alvin Callender Field/ Airport
KNBG : now visible

Airfield :











YOU CAN JOIN US ON...

 
LOGIN :

Register | Disclaimer

   EN    FR    IT 

 









Legend :    VFR   Marginal VFR   IFR   Intensive IFR   Very Intensive IFR
Visi :
Ceiling :
>= 8 km
>= 3000ft
5 to 8 km
1000 to 3000 ft
1500m to 5 km
500 to 1000 ft
800 to 1500m
200 to 500 ft
< 800m
< 200 ft
Symbols :   Thunderstorms  Fog  Heavy snow  Heavy precipitations  Wind > 20 kt






- Airport Elevation : 2 ft


KNBG - New Orleans Nas Jrb/Alvin Callender Field/

CURRENT METAR :
  • 011555Z 36008KT 1SM BR OVC003 13/13 A3026 RMK AO2 SLP246 T01330133 $

EXPIRED METARs :
  • 011523Z 36005KT 1SM BR OVC002 14/14 A3025 RMK AO2 T01390139 $
  • 011455Z 34007KT 3/4SM BR OVC002 13/13 A3024 RMK AO2 SLP239 T01330133 53026 $
  • 011355Z 01006KT 3/4SM BR VV003 13/13 A3021 RMK AO2 SLP229 T01280128 $

TAF TAF KNBG
Valid from the 01 at 15:00 until the 02 at 15:00 UTC


0115/0215 36005KT 4800 BR OVC005 QNH3018INS
TEMPO 0115/0116 VRB03KT 0400 FG VV002
BECMG 0116/0118 02010KT 9999 NSW BKN008 OVC011 QNH3014INS
BECMG 0121/0123 04010KT 9999 SCT005 OVC010 QNH3012INS
BECMG 0202/0207 05010KT 4800 BR VCSH OVC005 QNH3009INS
BECMG 0211/0213 06010KT 4800 -RA BR OVC008 QNH3011INS T15/0119Z T12/0211Z FN20040
KZHU FIR / North America



MET'MAP, your aeronautical weather chart ! - Copyright ORBIFLY December 2007 - Disclaimer

ORBIFLY MET'MAP TEAM :

Programming & Development : Alexandra Zaïnal
Original concept : Baudouin d'Aumeries
Technical & hardware support : Manuel Goepfert
Assistance : Marc-Olivier Méhu




SOURCES & CREDITS :

   NOAA       Earth
Advisory